sensor_id;sensor_type;location;lat;lon;timestamp;P1;durP1;ratioP1;P2;durP2;ratioP2
14849;SDS011;7517;48.400;11.770;2023-06-22T00:02:23;4.90;;;3.00;;
14849;SDS011;7517;48.400;11.770;2023-06-22T00:04:50;4.43;;;2.97;;
14849;SDS011;7517;48.400;11.770;2023-06-22T00:07:17;2.83;;;2.40;;
14849;SDS011;7517;48.400;11.770;2023-06-22T00:09:44;2.87;;;2.57;;
14849;SDS011;7517;48.400;11.770;2023-06-22T00:12:11;3.23;;;2.33;;
14849;SDS011;7517;48.400;11.770;2023-06-22T00:14:40;3.50;;;2.90;;
14849;SDS011;7517;48.400;11.770;2023-06-22T00:17:07;3.13;;;2.87;;
14849;SDS011;7517;48.400;11.770;2023-06-22T00:19:34;4.30;;;3.37;;
14849;SDS011;7517;48.400;11.770;2023-06-22T00:22:01;2.77;;;2.57;;
14849;SDS011;7517;48.400;11.770;2023-06-22T00:24:29;3.37;;;3.03;;
14849;SDS011;7517;48.400;11.770;2023-06-22T00:26:56;2.90;;;2.70;;
14849;SDS011;7517;48.400;11.770;2023-06-22T00:29:23;3.03;;;2.73;;
14849;SDS011;7517;48.400;11.770;2023-06-22T00:31:52;3.20;;;2.90;;
14849;SDS011;7517;48.400;11.770;2023-06-22T00:34:19;4.67;;;2.90;;
14849;SDS011;7517;48.400;11.770;2023-06-22T00:36:46;3.77;;;3.00;;
14849;SDS011;7517;48.400;11.770;2023-06-22T00:39:13;3.77;;;2.70;;
14849;SDS011;7517;48.400;11.770;2023-06-22T00:41:40;5.70;;;2.90;;
14849;SDS011;7517;48.400;11.770;2023-06-22T00:44:07;5.43;;;2.63;;
14849;SDS011;7517;48.400;11.770;2023-06-22T00:46:34;5.50;;;3.10;;
14849;SDS011;7517;48.400;11.770;2023-06-22T00:49:03;4.37;;;2.47;;
14849;SDS011;7517;48.400;11.770;2023-06-22T00:51:31;3.50;;;2.77;;
14849;SDS011;7517;48.400;11.770;2023-06-22T00:53:58;3.67;;;2.80;;
14849;SDS011;7517;48.400;11.770;2023-06-22T00:56:25;3.33;;;2.83;;
14849;SDS011;7517;48.400;11.770;2023-06-22T00:58:55;3.97;;;2.83;;
14849;SDS011;7517;48.400;11.770;2023-06-22T01:01:24;4.40;;;2.70;;
14849;SDS011;7517;48.400;11.770;2023-06-22T01:03:51;3.33;;;2.53;;
14849;SDS011;7517;48.400;11.770;2023-06-22T01:06:25;5.73;;;2.70;;
14849;SDS011;7517;48.400;11.770;2023-06-22T01:09:05;2.83;;;2.50;;
14849;SDS011;7517;48.400;11.770;2023-06-22T01:11:41;3.80;;;2.60;;
14849;SDS011;7517;48.400;11.770;2023-06-22T01:14:15;4.17;;;2.60;;
14849;SDS011;7517;48.400;11.770;2023-06-22T01:16:49;3.63;;;2.80;;
14849;SDS011;7517;48.400;11.770;2023-06-22T01:19:27;2.77;;;2.50;;
14849;SDS011;7517;48.400;11.770;2023-06-22T01:22:08;2.60;;;2.40;;
14849;SDS011;7517;48.400;11.770;2023-06-22T01:24:41;3.27;;;2.57;;
14849;SDS011;7517;48.400;11.770;2023-06-22T01:27:28;4.30;;;2.67;;
14849;SDS011;7517;48.400;11.770;2023-06-22T01:30:09;3.53;;;2.50;;
14849;SDS011;7517;48.400;11.770;2023-06-22T01:32:40;2.67;;;2.47;;
14849;SDS011;7517;48.400;11.770;2023-06-22T01:35:09;4.43;;;3.03;;
14849;SDS011;7517;48.400;11.770;2023-06-22T01:37:38;2.40;;;2.10;;
14849;SDS011;7517;48.400;11.770;2023-06-22T01:40:05;2.90;;;2.47;;
14849;SDS011;7517;48.400;11.770;2023-06-22T01:42:35;2.93;;;2.57;;
14849;SDS011;7517;48.400;11.770;2023-06-22T01:45:04;3.53;;;2.70;;
14849;SDS011;7517;48.400;11.770;2023-06-22T01:47:37;3.67;;;2.67;;
14849;SDS011;7517;48.400;11.770;2023-06-22T01:50:05;3.00;;;2.63;;
14849;SDS011;7517;48.400;11.770;2023-06-22T01:52:36;3.00;;;2.50;;
14849;SDS011;7517;48.400;11.770;2023-06-22T01:55:03;5.10;;;2.53;;
14849;SDS011;7517;48.400;11.770;2023-06-22T01:57:33;3.57;;;2.87;;
14849;SDS011;7517;48.400;11.770;2023-06-22T02:00:04;3.67;;;2.93;;
14849;SDS011;7517;48.400;11.770;2023-06-22T02:02:42;3.53;;;2.67;;
14849;SDS011;7517;48.400;11.770;2023-06-22T02:05:18;3.10;;;2.53;;
14849;SDS011;7517;48.400;11.770;2023-06-22T02:07:52;2.60;;;1.90;;
14849;SDS011;7517;48.400;11.770;2023-06-22T02:10:29;3.13;;;2.67;;
14849;SDS011;7517;48.400;11.770;2023-06-22T02:12:58;4.13;;;2.93;;
14849;SDS011;7517;48.400;11.770;2023-06-22T02:15:29;2.97;;;2.60;;
14849;SDS011;7517;48.400;11.770;2023-06-22T02:17:59;3.30;;;2.60;;
14849;SDS011;7517;48.400;11.770;2023-06-22T02:20:26;4.17;;;2.70;;
14849;SDS011;7517;48.400;11.770;2023-06-22T02:22:53;4.00;;;2.77;;
14849;SDS011;7517;48.400;11.770;2023-06-22T02:25:21;3.57;;;2.63;;
14849;SDS011;7517;48.400;11.770;2023-06-22T02:27:48;3.33;;;2.87;;
14849;SDS011;7517;48.400;11.770;2023-06-22T02:30:15;2.57;;;2.30;;
14849;SDS011;7517;48.400;11.770;2023-06-22T02:32:43;5.17;;;3.00;;
14849;SDS011;7517;48.400;11.770;2023-06-22T02:35:11;2.83;;;2.63;;
14849;SDS011;7517;48.400;11.770;2023-06-22T02:37:39;3.57;;;2.70;;
14849;SDS011;7517;48.400;11.770;2023-06-22T02:40:07;4.07;;;2.70;;
14849;SDS011;7517;48.400;11.770;2023-06-22T02:42:36;4.40;;;2.83;;
14849;SDS011;7517;48.400;11.770;2023-06-22T02:45:04;4.57;;;3.50;;
14849;SDS011;7517;48.400;11.770;2023-06-22T02:47:32;3.70;;;3.40;;
14849;SDS011;7517;48.400;11.770;2023-06-22T02:50:01;5.50;;;2.97;;
14849;SDS011;7517;48.400;11.770;2023-06-22T02:52:30;6.23;;;3.47;;
14849;SDS011;7517;48.400;11.770;2023-06-22T02:54:57;3.67;;;3.23;;
14849;SDS011;7517;48.400;11.770;2023-06-22T02:57:24;3.03;;;2.83;;
14849;SDS011;7517;48.400;11.770;2023-06-22T02:59:51;4.60;;;3.20;;
14849;SDS011;7517;48.400;11.770;2023-06-22T03:02:20;3.90;;;2.83;;
14849;SDS011;7517;48.400;11.770;2023-06-22T03:04:47;2.70;;;2.30;;
14849;SDS011;7517;48.400;11.770;2023-06-22T03:07:15;4.40;;;2.63;;
14849;SDS011;7517;48.400;11.770;2023-06-22T03:09:44;3.10;;;2.80;;
14849;SDS011;7517;48.400;11.770;2023-06-22T03:12:12;3.60;;;3.03;;
14849;SDS011;7517;48.400;11.770;2023-06-22T03:14:39;3.77;;;2.77;;
14849;SDS011;7517;48.400;11.770;2023-06-22T03:17:06;3.37;;;3.07;;
14849;SDS011;7517;48.400;11.770;2023-06-22T03:19:33;4.33;;;3.17;;
14849;SDS011;7517;48.400;11.770;2023-06-22T03:22:00;6.50;;;3.33;;
14849;SDS011;7517;48.400;11.770;2023-06-22T03:24:27;3.77;;;2.60;;
14849;SDS011;7517;48.400;11.770;2023-06-22T03:26:56;4.13;;;3.20;;
14849;SDS011;7517;48.400;11.770;2023-06-22T03:29:23;4.07;;;3.10;;
14849;SDS011;7517;48.400;11.770;2023-06-22T03:31:51;4.00;;;3.40;;
14849;SDS011;7517;48.400;11.770;2023-06-22T03:34:18;3.00;;;2.70;;
14849;SDS011;7517;48.400;11.770;2023-06-22T03:36:45;5.97;;;3.53;;
14849;SDS011;7517;48.400;11.770;2023-06-22T03:39:12;4.70;;;3.83;;
14849;SDS011;7517;48.400;11.770;2023-06-22T03:41:39;4.67;;;3.60;;
14849;SDS011;7517;48.400;11.770;2023-06-22T03:44:08;5.33;;;3.33;;
14849;SDS011;7517;48.400;11.770;2023-06-22T03:46:37;3.47;;;3.17;;
14849;SDS011;7517;48.400;11.770;2023-06-22T03:49:04;4.20;;;3.23;;
14849;SDS011;7517;48.400;11.770;2023-06-22T03:51:32;6.53;;;3.63;;
14849;SDS011;7517;48.400;11.770;2023-06-22T03:53:59;3.87;;;3.17;;
14849;SDS011;7517;48.400;11.770;2023-06-22T03:56:26;3.33;;;3.03;;
14849;SDS011;7517;48.400;11.770;2023-06-22T03:58:53;4.67;;;3.77;;
14849;SDS011;7517;48.400;11.770;2023-06-22T04:01:22;4.23;;;3.73;;
14849;SDS011;7517;48.400;11.770;2023-06-22T04:03:50;3.87;;;3.57;;
14849;SDS011;7517;48.400;11.770;2023-06-22T04:06:17;5.10;;;3.90;;
14849;SDS011;7517;48.400;11.770;2023-06-22T04:08:45;4.30;;;3.80;;
14849;SDS011;7517;48.400;11.770;2023-06-22T04:11:15;4.10;;;3.70;;
14849;SDS011;7517;48.400;11.770;2023-06-22T04:13:43;5.30;;;3.63;;
14849;SDS011;7517;48.400;11.770;2023-06-22T04:16:10;4.17;;;3.77;;
14849;SDS011;7517;48.400;11.770;2023-06-22T04:18:39;4.23;;;3.57;;
14849;SDS011;7517;48.400;11.770;2023-06-22T04:21:07;5.73;;;3.87;;
14849;SDS011;7517;48.400;11.770;2023-06-22T04:23:34;5.40;;;3.90;;
14849;SDS011;7517;48.400;11.770;2023-06-22T04:26:01;5.07;;;2.93;;
14849;SDS011;7517;48.400;11.770;2023-06-22T04:28:28;5.93;;;3.17;;
14849;SDS011;7517;48.400;11.770;2023-06-22T04:31:00;4.17;;;3.80;;
14849;SDS011;7517;48.400;11.770;2023-06-22T04:33:27;4.70;;;3.63;;
14849;SDS011;7517;48.400;11.770;2023-06-22T04:35:57;5.50;;;3.57;;
14849;SDS011;7517;48.400;11.770;2023-06-22T04:38:26;3.43;;;3.13;;
14849;SDS011;7517;48.400;11.770;2023-06-22T04:40:53;5.23;;;3.90;;
14849;SDS011;7517;48.400;11.770;2023-06-22T04:43:20;4.43;;;3.60;;
14849;SDS011;7517;48.400;11.770;2023-06-22T04:45:48;6.03;;;3.57;;
14849;SDS011;7517;48.400;11.770;2023-06-22T04:48:17;5.23;;;3.40;;
14849;SDS011;7517;48.400;11.770;2023-06-22T04:50:49;5.10;;;3.60;;
14849;SDS011;7517;48.400;11.770;2023-06-22T04:53:18;6.43;;;3.70;;
14849;SDS011;7517;48.400;11.770;2023-06-22T04:55:45;4.57;;;3.70;;
14849;SDS011;7517;48.400;11.770;2023-06-22T04:58:20;6.83;;;3.67;;
14849;SDS011;7517;48.400;11.770;2023-06-22T05:00:48;7.20;;;3.57;;
14849;SDS011;7517;48.400;11.770;2023-06-22T05:03:27;5.57;;;4.37;;
14849;SDS011;7517;48.400;11.770;2023-06-22T05:05:56;4.67;;;3.33;;
14849;SDS011;7517;48.400;11.770;2023-06-22T05:08:28;5.97;;;4.53;;
14849;SDS011;7517;48.400;11.770;2023-06-22T05:10:56;4.20;;;3.70;;
14849;SDS011;7517;48.400;11.770;2023-06-22T05:13:27;5.37;;;3.57;;
14849;SDS011;7517;48.400;11.770;2023-06-22T05:15:54;4.80;;;3.90;;
14849;SDS011;7517;48.400;11.770;2023-06-22T05:18:26;4.27;;;3.53;;
14849;SDS011;7517;48.400;11.770;2023-06-22T05:20:59;4.30;;;3.87;;
14849;SDS011;7517;48.400;11.770;2023-06-22T05:23:36;4.90;;;3.90;;
14849;SDS011;7517;48.400;11.770;2023-06-22T05:26:10;4.83;;;3.50;;
14849;SDS011;7517;48.400;11.770;2023-06-22T05:28:40;3.87;;;3.00;;
14849;SDS011;7517;48.400;11.770;2023-06-22T05:31:14;5.17;;;3.67;;
14849;SDS011;7517;48.400;11.770;2023-06-22T05:33:44;6.17;;;3.30;;
14849;SDS011;7517;48.400;11.770;2023-06-22T05:36:13;4.43;;;4.03;;
14849;SDS011;7517;48.400;11.770;2023-06-22T05:38:42;4.73;;;3.20;;
14849;SDS011;7517;48.400;11.770;2023-06-22T05:41:09;4.17;;;3.77;;
14849;SDS011;7517;48.400;11.770;2023-06-22T05:43:36;5.80;;;3.67;;
14849;SDS011;7517;48.400;11.770;2023-06-22T05:46:03;5.43;;;3.37;;
14849;SDS011;7517;48.400;11.770;2023-06-22T05:48:31;4.07;;;3.50;;
14849;SDS011;7517;48.400;11.770;2023-06-22T05:51:01;5.10;;;3.57;;
14849;SDS011;7517;48.400;11.770;2023-06-22T05:53:28;5.57;;;3.17;;
14849;SDS011;7517;48.400;11.770;2023-06-22T05:55:56;5.03;;;3.33;;
14849;SDS011;7517;48.400;11.770;2023-06-22T05:58:24;4.67;;;3.20;;
14849;SDS011;7517;48.400;11.770;2023-06-22T06:00:51;3.97;;;3.30;;
14849;SDS011;7517;48.400;11.770;2023-06-22T06:03:18;6.10;;;3.10;;
14849;SDS011;7517;48.400;11.770;2023-06-22T06:05:45;4.03;;;3.10;;
14849;SDS011;7517;48.400;11.770;2023-06-22T06:08:12;3.10;;;2.77;;
14849;SDS011;7517;48.400;11.770;2023-06-22T06:10:40;5.13;;;3.30;;
14849;SDS011;7517;48.400;11.770;2023-06-22T06:13:08;3.33;;;3.03;;
14849;SDS011;7517;48.400;11.770;2023-06-22T06:15:35;4.00;;;2.90;;
14849;SDS011;7517;48.400;11.770;2023-06-22T06:18:05;4.97;;;3.27;;
14849;SDS011;7517;48.400;11.770;2023-06-22T06:20:32;4.50;;;2.70;;
14849;SDS011;7517;48.400;11.770;2023-06-22T06:23:00;5.63;;;2.97;;
14849;SDS011;7517;48.400;11.770;2023-06-22T06:25:27;3.60;;;2.87;;
14849;SDS011;7517;48.400;11.770;2023-06-22T06:27:55;4.10;;;3.10;;
14849;SDS011;7517;48.400;11.770;2023-06-22T06:30:23;2.70;;;2.50;;
14849;SDS011;7517;48.400;11.770;2023-06-22T06:32:50;5.57;;;2.50;;
14849;SDS011;7517;48.400;11.770;2023-06-22T06:35:17;4.70;;;2.40;;
14849;SDS011;7517;48.400;11.770;2023-06-22T06:37:48;3.57;;;2.17;;
14849;SDS011;7517;48.400;11.770;2023-06-22T06:40:17;5.23;;;3.03;;
14849;SDS011;7517;48.400;11.770;2023-06-22T06:42:45;4.27;;;2.47;;
14849;SDS011;7517;48.400;11.770;2023-06-22T06:45:15;2.40;;;2.17;;
14849;SDS011;7517;48.400;11.770;2023-06-22T06:47:49;3.77;;;2.23;;
14849;SDS011;7517;48.400;11.770;2023-06-22T06:50:17;5.67;;;2.47;;
14849;SDS011;7517;48.400;11.770;2023-06-22T06:52:45;3.17;;;2.53;;
14849;SDS011;7517;48.400;11.770;2023-06-22T06:55:12;2.73;;;2.50;;
14849;SDS011;7517;48.400;11.770;2023-06-22T06:57:39;3.00;;;1.97;;
14849;SDS011;7517;48.400;11.770;2023-06-22T07:00:08;4.60;;;2.30;;
14849;SDS011;7517;48.400;11.770;2023-06-22T07:02:39;4.57;;;2.20;;
14849;SDS011;7517;48.400;11.770;2023-06-22T07:05:09;4.10;;;2.63;;
14849;SDS011;7517;48.400;11.770;2023-06-22T07:07:39;3.10;;;2.47;;
14849;SDS011;7517;48.400;11.770;2023-06-22T07:10:07;4.23;;;2.37;;
14849;SDS011;7517;48.400;11.770;2023-06-22T07:12:35;2.87;;;2.20;;
14849;SDS011;7517;48.400;11.770;2023-06-22T07:15:03;3.03;;;2.20;;
14849;SDS011;7517;48.400;11.770;2023-06-22T07:17:33;2.20;;;2.00;;
14849;SDS011;7517;48.400;11.770;2023-06-22T07:20:00;2.97;;;2.27;;
14849;SDS011;7517;48.400;11.770;2023-06-22T07:22:31;4.70;;;2.60;;
14849;SDS011;7517;48.400;11.770;2023-06-22T07:24:58;3.70;;;2.20;;
14849;SDS011;7517;48.400;11.770;2023-06-22T07:27:26;3.05;;;1.85;;
14849;SDS011;7517;48.400;11.770;2023-06-22T07:30:02;3.20;;;2.10;;
14849;SDS011;7517;48.400;11.770;2023-06-22T07:32:32;3.75;;;2.00;;
14849;SDS011;7517;48.400;11.770;2023-06-22T07:34:59;4.00;;;2.45;;
14849;SDS011;7517;48.400;11.770;2023-06-22T07:37:31;3.35;;;2.08;;
14849;SDS011;7517;48.400;11.770;2023-06-22T07:40:00;2.75;;;1.98;;
14849;SDS011;7517;48.400;11.770;2023-06-22T07:42:31;1.83;;;1.63;;
14849;SDS011;7517;48.400;11.770;2023-06-22T07:44:59;3.25;;;1.85;;
14849;SDS011;7517;48.400;11.770;2023-06-22T07:47:27;2.50;;;1.58;;
14849;SDS011;7517;48.400;11.770;2023-06-22T07:49:55;3.30;;;1.88;;
14849;SDS011;7517;48.400;11.770;2023-06-22T07:52:26;3.80;;;1.85;;
14849;SDS011;7517;48.400;11.770;2023-06-22T07:54:55;6.63;;;2.13;;
14849;SDS011;7517;48.400;11.770;2023-06-22T07:57:22;3.05;;;2.13;;
14849;SDS011;7517;48.400;11.770;2023-06-22T07:59:57;5.13;;;1.90;;
14849;SDS011;7517;48.400;11.770;2023-06-22T08:02:25;3.38;;;2.08;;
14849;SDS011;7517;48.400;11.770;2023-06-22T08:04:52;3.35;;;2.13;;
14849;SDS011;7517;48.400;11.770;2023-06-22T08:07:20;3.08;;;2.22;;
14849;SDS011;7517;48.400;11.770;2023-06-22T08:09:47;2.92;;;1.75;;
14849;SDS011;7517;48.400;11.770;2023-06-22T08:12:16;3.22;;;1.85;;
14849;SDS011;7517;48.400;11.770;2023-06-22T08:14:43;3.33;;;2.05;;
14849;SDS011;7517;48.400;11.770;2023-06-22T08:17:12;2.17;;;1.98;;
14849;SDS011;7517;48.400;11.770;2023-06-22T08:19:39;6.60;;;2.17;;
14849;SDS011;7517;48.400;11.770;2023-06-22T08:22:07;3.35;;;2.33;;
14849;SDS011;7517;48.400;11.770;2023-06-22T08:24:34;3.45;;;1.85;;
14849;SDS011;7517;48.400;11.770;2023-06-22T08:27:02;5.78;;;2.75;;
14849;SDS011;7517;48.400;11.770;2023-06-22T08:29:35;2.22;;;1.83;;
14849;SDS011;7517;48.400;11.770;2023-06-22T08:32:02;2.55;;;1.70;;
14849;SDS011;7517;48.400;11.770;2023-06-22T08:34:30;2.60;;;2.05;;
14849;SDS011;7517;48.400;11.770;2023-06-22T08:36:57;2.53;;;2.33;;
14849;SDS011;7517;48.400;11.770;2023-06-22T08:39:24;2.10;;;1.92;;
14849;SDS011;7517;48.400;11.770;2023-06-22T08:41:52;2.10;;;1.90;;
14849;SDS011;7517;48.400;11.770;2023-06-22T08:44:20;3.22;;;1.90;;
14849;SDS011;7517;48.400;11.770;2023-06-22T08:46:49;2.67;;;2.10;;
14849;SDS011;7517;48.400;11.770;2023-06-22T08:49:16;2.25;;;1.90;;
14849;SDS011;7517;48.400;11.770;2023-06-22T08:51:43;3.25;;;2.08;;
14849;SDS011;7517;48.400;11.770;2023-06-22T08:54:12;4.68;;;2.10;;
14849;SDS011;7517;48.400;11.770;2023-06-22T08:56:40;3.78;;;2.00;;
14849;SDS011;7517;48.400;11.770;2023-06-22T08:59:09;3.00;;;2.17;;
14849;SDS011;7517;48.400;11.770;2023-06-22T09:01:36;4.28;;;2.30;;
14849;SDS011;7517;48.400;11.770;2023-06-22T09:04:05;2.75;;;1.98;;
14849;SDS011;7517;48.400;11.770;2023-06-22T09:06:34;3.53;;;2.17;;
14849;SDS011;7517;48.400;11.770;2023-06-22T09:09:06;2.05;;;1.75;;
14849;SDS011;7517;48.400;11.770;2023-06-22T09:11:33;3.90;;;2.33;;
14849;SDS011;7517;48.400;11.770;2023-06-22T09:14:01;4.47;;;2.28;;
14849;SDS011;7517;48.400;11.770;2023-06-22T09:16:29;4.85;;;2.25;;
14849;SDS011;7517;48.400;11.770;2023-06-22T09:18:56;3.38;;;2.13;;
14849;SDS011;7517;48.400;11.770;2023-06-22T09:21:25;3.53;;;2.33;;
14849;SDS011;7517;48.400;11.770;2023-06-22T09:23:53;5.05;;;2.50;;
14849;SDS011;7517;48.400;11.770;2023-06-22T09:26:20;3.22;;;1.88;;
14849;SDS011;7517;48.400;11.770;2023-06-22T09:28:49;4.07;;;1.95;;
14849;SDS011;7517;48.400;11.770;2023-06-22T09:31:16;12.45;;;2.83;;
14849;SDS011;7517;48.400;11.770;2023-06-22T09:33:50;2.67;;;1.73;;
14849;SDS011;7517;48.400;11.770;2023-06-22T09:36:19;4.32;;;2.42;;
14849;SDS011;7517;48.400;11.770;2023-06-22T09:38:48;4.70;;;2.22;;
14849;SDS011;7517;48.400;11.770;2023-06-22T09:41:20;2.42;;;2.10;;
14849;SDS011;7517;48.400;11.770;2023-06-22T09:43:47;7.22;;;2.38;;
14849;SDS011;7517;48.400;11.770;2023-06-22T09:46:15;5.50;;;2.50;;
14849;SDS011;7517;48.400;11.770;2023-06-22T09:48:45;7.75;;;2.58;;
14849;SDS011;7517;48.400;11.770;2023-06-22T09:51:12;2.97;;;2.00;;
14849;SDS011;7517;48.400;11.770;2023-06-22T09:53:40;2.65;;;2.17;;
14849;SDS011;7517;48.400;11.770;2023-06-22T09:56:09;3.33;;;2.50;;
14849;SDS011;7517;48.400;11.770;2023-06-22T09:58:40;5.07;;;1.83;;
14849;SDS011;7517;48.400;11.770;2023-06-22T10:01:08;3.78;;;2.30;;
14849;SDS011;7517;48.400;11.770;2023-06-22T10:03:36;5.05;;;2.22;;
14849;SDS011;7517;48.400;11.770;2023-06-22T10:06:04;3.95;;;2.03;;
14849;SDS011;7517;48.400;11.770;2023-06-22T10:08:31;3.67;;;2.10;;
14849;SDS011;7517;48.400;11.770;2023-06-22T10:10:58;3.13;;;1.85;;
14849;SDS011;7517;48.400;11.770;2023-06-22T10:13:27;3.42;;;2.45;;
14849;SDS011;7517;48.400;11.770;2023-06-22T10:15:55;4.03;;;1.83;;
14849;SDS011;7517;48.400;11.770;2023-06-22T10:18:22;3.03;;;1.95;;
14849;SDS011;7517;48.400;11.770;2023-06-22T10:20:52;3.67;;;1.92;;
14849;SDS011;7517;48.400;11.770;2023-06-22T10:23:20;3.10;;;1.98;;
14849;SDS011;7517;48.400;11.770;2023-06-22T10:25:48;3.20;;;2.00;;
14849;SDS011;7517;48.400;11.770;2023-06-22T10:28:15;4.38;;;2.30;;
14849;SDS011;7517;48.400;11.770;2023-06-22T10:30:44;5.38;;;2.10;;
14849;SDS011;7517;48.400;11.770;2023-06-22T10:33:11;3.92;;;2.10;;
14849;SDS011;7517;48.400;11.770;2023-06-22T10:35:39;4.70;;;2.53;;
14849;SDS011;7517;48.400;11.770;2023-06-22T10:38:06;5.47;;;2.95;;
14849;SDS011;7517;48.400;11.770;2023-06-22T10:40:34;5.28;;;1.90;;
14849;SDS011;7517;48.400;11.770;2023-06-22T10:43:01;2.22;;;1.80;;
14849;SDS011;7517;48.400;11.770;2023-06-22T10:45:28;3.08;;;2.05;;
14849;SDS011;7517;48.400;11.770;2023-06-22T10:47:57;4.32;;;2.30;;
14849;SDS011;7517;48.400;11.770;2023-06-22T10:50:25;3.13;;;2.00;;
14849;SDS011;7517;48.400;11.770;2023-06-22T10:52:53;2.70;;;2.50;;
14849;SDS011;7517;48.400;11.770;2023-06-22T10:55:23;5.50;;;2.30;;
14849;SDS011;7517;48.400;11.770;2023-06-22T10:57:50;4.90;;;2.33;;
14849;SDS011;7517;48.400;11.770;2023-06-22T11:00:17;3.25;;;2.35;;
14849;SDS011;7517;48.400;11.770;2023-06-22T11:02:46;6.47;;;2.58;;
14849;SDS011;7517;48.400;11.770;2023-06-22T11:05:15;5.28;;;2.42;;
14849;SDS011;7517;48.400;11.770;2023-06-22T11:07:43;5.18;;;2.75;;
14849;SDS011;7517;48.400;11.770;2023-06-22T11:10:10;3.33;;;2.10;;
14849;SDS011;7517;48.400;11.770;2023-06-22T11:12:38;3.20;;;2.20;;
14849;SDS011;7517;48.400;11.770;2023-06-22T11:15:06;4.57;;;2.40;;
14849;SDS011;7517;48.400;11.770;2023-06-22T11:17:34;4.85;;;2.88;;
14849;SDS011;7517;48.400;11.770;2023-06-22T11:20:02;3.92;;;2.42;;
14849;SDS011;7517;48.400;11.770;2023-06-22T11:22:37;3.97;;;2.25;;
14849;SDS011;7517;48.400;11.770;2023-06-22T11:25:04;6.30;;;2.20;;
14849;SDS011;7517;48.400;11.770;2023-06-22T11:27:33;3.38;;;2.35;;
14849;SDS011;7517;48.400;11.770;2023-06-22T11:30:01;3.97;;;2.53;;
14849;SDS011;7517;48.400;11.770;2023-06-22T11:32:29;5.10;;;2.70;;
14849;SDS011;7517;48.400;11.770;2023-06-22T11:34:56;5.25;;;2.05;;
14849;SDS011;7517;48.400;11.770;2023-06-22T11:37:24;5.25;;;2.17;;
14849;SDS011;7517;48.400;11.770;2023-06-22T11:39:52;4.10;;;2.40;;
14849;SDS011;7517;48.400;11.770;2023-06-22T11:42:20;3.83;;;2.45;;
14849;SDS011;7517;48.400;11.770;2023-06-22T11:44:50;4.55;;;2.33;;
14849;SDS011;7517;48.400;11.770;2023-06-22T11:47:18;6.20;;;2.90;;
14849;SDS011;7517;48.400;11.770;2023-06-22T11:49:45;5.55;;;2.40;;
14849;SDS011;7517;48.400;11.770;2023-06-22T11:52:13;5.35;;;2.45;;
14849;SDS011;7517;48.400;11.770;2023-06-22T11:54:42;5.70;;;2.65;;
14849;SDS011;7517;48.400;11.770;2023-06-22T11:57:12;5.65;;;2.00;;
14849;SDS011;7517;48.400;11.770;2023-06-22T11:59:39;2.90;;;2.20;;
14849;SDS011;7517;48.400;11.770;2023-06-22T12:02:06;4.35;;;2.47;;
14849;SDS011;7517;48.400;11.770;2023-06-22T12:04:34;3.35;;;2.08;;
14849;SDS011;7517;48.400;11.770;2023-06-22T12:07:03;6.43;;;3.03;;
14849;SDS011;7517;48.400;11.770;2023-06-22T12:09:30;4.15;;;2.35;;
14849;SDS011;7517;48.400;11.770;2023-06-22T12:11:58;6.80;;;2.58;;
14849;SDS011;7517;48.400;11.770;2023-06-22T12:14:26;7.43;;;2.60;;
14849;SDS011;7517;48.400;11.770;2023-06-22T12:16:54;4.93;;;2.00;;
14849;SDS011;7517;48.400;11.770;2023-06-22T12:19:22;8.35;;;2.50;;
14849;SDS011;7517;48.400;11.770;2023-06-22T12:21:49;4.70;;;2.25;;
14849;SDS011;7517;48.400;11.770;2023-06-22T12:24:16;4.60;;;2.42;;
14849;SDS011;7517;48.400;11.770;2023-06-22T12:26:44;6.45;;;2.70;;
14849;SDS011;7517;48.400;11.770;2023-06-22T12:29:11;5.28;;;2.20;;
14849;SDS011;7517;48.400;11.770;2023-06-22T12:31:40;4.57;;;2.25;;
14849;SDS011;7517;48.400;11.770;2023-06-22T12:34:09;5.25;;;2.63;;
14849;SDS011;7517;48.400;11.770;2023-06-22T12:36:37;2.97;;;2.15;;
14849;SDS011;7517;48.400;11.770;2023-06-22T12:39:04;2.80;;;2.50;;
14849;SDS011;7517;48.400;11.770;2023-06-22T12:41:31;4.57;;;2.65;;
14849;SDS011;7517;48.400;11.770;2023-06-22T12:43:58;2.72;;;2.28;;
14849;SDS011;7517;48.400;11.770;2023-06-22T12:46:26;5.13;;;2.42;;
14849;SDS011;7517;48.400;11.770;2023-06-22T12:48:56;4.70;;;2.08;;
14849;SDS011;7517;48.400;11.770;2023-06-22T12:51:26;5.28;;;2.20;;
14849;SDS011;7517;48.400;11.770;2023-06-22T12:53:53;2.95;;;2.13;;
14849;SDS011;7517;48.400;11.770;2023-06-22T12:56:20;3.67;;;2.03;;
14849;SDS011;7517;48.400;11.770;2023-06-22T12:58:49;3.80;;;2.45;;
14849;SDS011;7517;48.400;11.770;2023-06-22T13:01:16;3.67;;;2.60;;
14849;SDS011;7517;48.400;11.770;2023-06-22T13:03:43;8.02;;;3.03;;
14849;SDS011;7517;48.400;11.770;2023-06-22T13:06:12;5.03;;;2.28;;
14849;SDS011;7517;48.400;11.770;2023-06-22T13:08:39;3.83;;;2.22;;
14849;SDS011;7517;48.400;11.770;2023-06-22T13:11:07;6.03;;;2.40;;
14849;SDS011;7517;48.400;11.770;2023-06-22T13:13:34;5.55;;;2.30;;
14849;SDS011;7517;48.400;11.770;2023-06-22T13:16:01;4.57;;;2.10;;
14849;SDS011;7517;48.400;11.770;2023-06-22T13:18:29;5.70;;;2.80;;
14849;SDS011;7517;48.400;11.770;2023-06-22T13:20:57;4.50;;;2.15;;
14849;SDS011;7517;48.400;11.770;2023-06-22T13:23:26;4.03;;;2.33;;
14849;SDS011;7517;48.400;11.770;2023-06-22T13:25:53;5.85;;;2.55;;
14849;SDS011;7517;48.400;11.770;2023-06-22T13:28:21;6.28;;;2.75;;
14849;SDS011;7517;48.400;11.770;2023-06-22T13:30:48;4.88;;;2.30;;
14849;SDS011;7517;48.400;11.770;2023-06-22T13:33:16;5.28;;;2.47;;
14849;SDS011;7517;48.400;11.770;2023-06-22T13:35:43;3.95;;;2.10;;
14849;SDS011;7517;48.400;11.770;2023-06-22T13:38:11;4.63;;;2.33;;
14849;SDS011;7517;48.400;11.770;2023-06-22T13:40:39;4.80;;;2.42;;
14849;SDS011;7517;48.400;11.770;2023-06-22T13:43:07;5.97;;;2.55;;
14849;SDS011;7517;48.400;11.770;2023-06-22T13:45:34;2.70;;;2.25;;
14849;SDS011;7517;48.400;11.770;2023-06-22T13:48:02;4.25;;;2.40;;
14849;SDS011;7517;48.400;11.770;2023-06-22T13:50:30;3.65;;;2.10;;
14849;SDS011;7517;48.400;11.770;2023-06-22T13:52:58;4.07;;;2.10;;
14849;SDS011;7517;48.400;11.770;2023-06-22T13:55:25;5.90;;;2.30;;
14849;SDS011;7517;48.400;11.770;2023-06-22T13:57:54;3.70;;;2.40;;
14849;SDS011;7517;48.400;11.770;2023-06-22T14:00:22;5.78;;;2.75;;
14849;SDS011;7517;48.400;11.770;2023-06-22T14:02:49;6.63;;;2.33;;
14849;SDS011;7517;48.400;11.770;2023-06-22T14:05:16;4.10;;;2.60;;
14849;SDS011;7517;48.400;11.770;2023-06-22T14:07:44;4.88;;;2.20;;
14849;SDS011;7517;48.400;11.770;2023-06-22T14:10:12;6.88;;;2.55;;
14849;SDS011;7517;48.400;11.770;2023-06-22T14:12:39;6.30;;;2.40;;
14849;SDS011;7517;48.400;11.770;2023-06-22T14:15:08;4.72;;;2.33;;
14849;SDS011;7517;48.400;11.770;2023-06-22T14:17:36;6.72;;;2.55;;
14849;SDS011;7517;48.400;11.770;2023-06-22T14:20:06;5.75;;;2.38;;
14849;SDS011;7517;48.400;11.770;2023-06-22T14:22:34;6.63;;;2.90;;
14849;SDS011;7517;48.400;11.770;2023-06-22T14:25:05;6.18;;;2.67;;
14849;SDS011;7517;48.400;11.770;2023-06-22T14:27:33;4.68;;;2.47;;
14849;SDS011;7517;48.400;11.770;2023-06-22T14:30:00;7.28;;;2.80;;
14849;SDS011;7517;48.400;11.770;2023-06-22T14:32:29;5.15;;;2.42;;
14849;SDS011;7517;48.400;11.770;2023-06-22T14:34:56;6.57;;;2.33;;
14849;SDS011;7517;48.400;11.770;2023-06-22T14:37:24;3.97;;;2.25;;
14849;SDS011;7517;48.400;11.770;2023-06-22T14:39:51;4.38;;;2.28;;
14849;SDS011;7517;48.400;11.770;2023-06-22T14:42:19;4.93;;;2.47;;
14849;SDS011;7517;48.400;11.770;2023-06-22T14:44:47;6.32;;;2.50;;
14849;SDS011;7517;48.400;11.770;2023-06-22T14:47:17;4.80;;;2.75;;
14849;SDS011;7517;48.400;11.770;2023-06-22T14:49:47;9.80;;;3.17;;
14849;SDS011;7517;48.400;11.770;2023-06-22T14:52:17;5.10;;;2.42;;
14849;SDS011;7517;48.400;11.770;2023-06-22T14:54:44;6.57;;;2.60;;
14849;SDS011;7517;48.400;11.770;2023-06-22T14:57:11;5.63;;;2.63;;